sensor_id;sensor_type;location;lat;lon;timestamp;pressure;altitude;pressure_sealevel;temperature;humidity
65553;BME280;52465;51.560;14.368;2023-05-08T00:00:55;101284.97;;;13.82;59.92
65553;BME280;52465;51.560;14.368;2023-05-08T00:03:45;101243.94;;;13.53;59.88
65553;BME280;52465;51.560;14.368;2023-05-08T00:06:11;101275.69;;;13.77;59.75
65553;BME280;52465;51.560;14.368;2023-05-08T00:08:36;101286.06;;;13.79;59.94
65553;BME280;52465;51.560;14.368;2023-05-08T00:11:01;101273.91;;;13.78;59.57
65553;BME280;52465;51.560;14.368;2023-05-08T00:13:29;101247.59;;;13.60;59.66
65553;BME280;52465;51.560;14.368;2023-05-08T00:15:55;101274.06;;;13.76;59.75
65553;BME280;52465;51.560;14.368;2023-05-08T00:18:20;101279.00;;;13.80;59.68
65553;BME280;52465;51.560;14.368;2023-05-08T00:20:46;101277.66;;;13.75;59.94
65553;BME280;52465;51.560;14.368;2023-05-08T00:23:11;101270.50;;;13.68;59.78
65553;BME280;52465;51.560;14.368;2023-05-08T00:25:37;101260.31;;;13.65;60.05
65553;BME280;52465;51.560;14.368;2023-05-08T00:28:02;101275.69;;;13.77;59.80
65553;BME280;52465;51.560;14.368;2023-05-08T00:30:27;101272.16;;;13.69;59.62
65553;BME280;52465;51.560;14.368;2023-05-08T00:32:53;101276.00;;;13.74;60.10
65553;BME280;52465;51.560;14.368;2023-05-08T00:35:19;101284.88;;;13.73;60.00
65553;BME280;52465;51.560;14.368;2023-05-08T00:38:03;101289.16;;;13.74;60.10
65553;BME280;52465;51.560;14.368;2023-05-08T00:40:29;101284.22;;;13.71;59.81
65553;BME280;52465;51.560;14.368;2023-05-08T00:42:55;101283.22;;;13.72;59.56
65553;BME280;52465;51.560;14.368;2023-05-08T00:45:20;101282.94;;;13.75;60.04
65553;BME280;52465;51.560;14.368;2023-05-08T00:47:45;101275.78;;;13.68;60.31
65553;BME280;52465;51.560;14.368;2023-05-08T00:50:12;101290.97;;;13.74;60.02
65553;BME280;52465;51.560;14.368;2023-05-08T00:52:38;101255.28;;;13.54;59.82
65553;BME280;52465;51.560;14.368;2023-05-08T00:55:04;101279.94;;;13.70;60.13
65553;BME280;52465;51.560;14.368;2023-05-08T00:57:32;101291.94;;;13.73;59.89
65553;BME280;52465;51.560;14.368;2023-05-08T01:00:03;101294.19;;;13.68;59.77
65553;BME280;52465;51.560;14.368;2023-05-08T01:02:29;101287.13;;;13.68;59.99
65553;BME280;52465;51.560;14.368;2023-05-08T01:04:57;101275.19;;;13.56;60.02
65553;BME280;52465;51.560;14.368;2023-05-08T01:07:24;101262.63;;;13.50;59.85
65553;BME280;52465;51.560;14.368;2023-05-08T01:09:52;101299.19;;;13.71;60.07
65553;BME280;52465;51.560;14.368;2023-05-08T01:15:11;101286.91;;;13.62;59.58
65553;BME280;52465;51.560;14.368;2023-05-08T01:18:10;101301.44;;;13.66;60.10
65553;BME280;52465;51.560;14.368;2023-05-08T01:28:37;101288.94;;;13.68;59.83
65553;BME280;52465;51.560;14.368;2023-05-08T01:31:23;101286.63;;;13.65;59.89
65553;BME280;52465;51.560;14.368;2023-05-08T01:34:02;101271.56;;;13.57;59.91
65553;BME280;52465;51.560;14.368;2023-05-08T01:36:40;101279.34;;;13.59;60.21
65553;BME280;52465;51.560;14.368;2023-05-08T01:39:38;101284.13;;;13.63;60.26
65553;BME280;52465;51.560;14.368;2023-05-08T01:42:30;101286.91;;;13.62;60.14
65553;BME280;52465;51.560;14.368;2023-05-08T01:45:06;101287.91;;;13.61;60.16
65553;BME280;52465;51.560;14.368;2023-05-08T01:47:36;101252.72;;;13.44;60.37
65553;BME280;52465;51.560;14.368;2023-05-08T01:50:05;101269.25;;;13.54;59.87
65553;BME280;52465;51.560;14.368;2023-05-08T01:52:42;101235.19;;;13.35;60.09
65553;BME280;52465;51.560;14.368;2023-05-08T01:55:15;101281.00;;;13.60;60.09
65553;BME280;52465;51.560;14.368;2023-05-08T01:57:46;101255.50;;;13.42;60.00
65553;BME280;52465;51.560;14.368;2023-05-08T02:00:19;101279.63;;;13.56;60.41
65553;BME280;52465;51.560;14.368;2023-05-08T02:02:46;101273.38;;;13.57;60.04
65553;BME280;52465;51.560;14.368;2023-05-08T02:05:13;101275.34;;;13.55;59.98
65553;BME280;52465;51.560;14.368;2023-05-08T02:07:40;101277.66;;;13.58;60.20
65553;BME280;52465;51.560;14.368;2023-05-08T02:10:08;101265.44;;;13.48;60.03
65553;BME280;52465;51.560;14.368;2023-05-08T02:12:38;101278.81;;;13.55;60.41
65553;BME280;52465;51.560;14.368;2023-05-08T02:15:06;101249.19;;;13.35;59.78
65553;BME280;52465;51.560;14.368;2023-05-08T02:17:35;101227.69;;;13.22;60.28
65553;BME280;52465;51.560;14.368;2023-05-08T02:20:03;101264.38;;;13.41;60.11
65553;BME280;52465;51.560;14.368;2023-05-08T02:22:31;101284.06;;;13.55;60.28
65553;BME280;52465;51.560;14.368;2023-05-08T02:24:57;101236.25;;;13.24;60.13
65553;BME280;52465;51.560;14.368;2023-05-08T02:27:25;101265.59;;;13.47;60.09
65553;BME280;52465;51.560;14.368;2023-05-08T02:29:52;101282.41;;;13.54;60.14
65553;BME280;52465;51.560;14.368;2023-05-08T02:32:19;101285.22;;;13.53;60.33
65553;BME280;52465;51.560;14.368;2023-05-08T02:34:48;101255.97;;;13.38;60.06
65553;BME280;52465;51.560;14.368;2023-05-08T02:37:15;101276.94;;;13.47;60.52
65553;BME280;52465;51.560;14.368;2023-05-08T02:39:43;101279.56;;;13.47;60.27
65553;BME280;52465;51.560;14.368;2023-05-08T02:42:11;101260.56;;;13.36;60.24
65553;BME280;52465;51.560;14.368;2023-05-08T02:44:36;101242.38;;;13.25;60.17
65553;BME280;52465;51.560;14.368;2023-05-08T02:47:14;101280.22;;;13.49;60.14
65553;BME280;52465;51.560;14.368;2023-05-08T02:50:02;101283.84;;;13.48;60.35
65553;BME280;52465;51.560;14.368;2023-05-08T02:52:32;101275.19;;;13.38;60.12
65553;BME280;52465;51.560;14.368;2023-05-08T02:55:04;101268.28;;;13.37;60.39
65553;BME280;52465;51.560;14.368;2023-05-08T03:00:34;101275.03;;;13.40;60.75
65553;BME280;52465;51.560;14.368;2023-05-08T03:03:12;101290.38;;;13.44;60.25
65553;BME280;52465;51.560;14.368;2023-05-08T03:05:43;101292.19;;;13.44;60.48
65553;BME280;52465;51.560;14.368;2023-05-08T03:08:17;101284.34;;;13.34;60.40
65553;BME280;52465;51.560;14.368;2023-05-08T03:10:45;101295.94;;;13.41;60.07
65553;BME280;52465;51.560;14.368;2023-05-08T03:13:13;101289.47;;;13.36;60.25
65553;BME280;52465;51.560;14.368;2023-05-08T03:15:44;101293.31;;;13.41;60.56
65553;BME280;52465;51.560;14.368;2023-05-08T03:18:31;101305.63;;;13.41;60.43
65553;BME280;52465;51.560;14.368;2023-05-08T03:20:59;101293.00;;;13.27;60.31
65553;BME280;52465;51.560;14.368;2023-05-08T03:23:27;101305.94;;;13.38;60.19
65553;BME280;52465;51.560;14.368;2023-05-08T03:25:53;101294.38;;;13.31;60.51
65553;BME280;52465;51.560;14.368;2023-05-08T03:28:22;101309.22;;;13.40;60.12
65553;BME280;52465;51.560;14.368;2023-05-08T03:30:49;101317.28;;;13.38;60.38
65553;BME280;52465;51.560;14.368;2023-05-08T03:33:15;101312.84;;;13.39;60.42
65553;BME280;52465;51.560;14.368;2023-05-08T03:35:42;101310.38;;;13.37;60.00
65553;BME280;52465;51.560;14.368;2023-05-08T03:38:09;101307.03;;;13.35;60.22
65553;BME280;52465;51.560;14.368;2023-05-08T03:40:39;101312.31;;;13.35;60.62
65553;BME280;52465;51.560;14.368;2023-05-08T03:43:10;101313.97;;;13.36;60.29
65553;BME280;52465;51.560;14.368;2023-05-08T03:45:37;101286.53;;;13.21;60.10
65553;BME280;52465;51.560;14.368;2023-05-08T03:48:06;101315.78;;;13.36;60.10
65553;BME280;52465;51.560;14.368;2023-05-08T03:50:34;101319.09;;;13.38;60.26
65553;BME280;52465;51.560;14.368;2023-05-08T03:53:00;101296.06;;;13.22;60.37
65553;BME280;52465;51.560;14.368;2023-05-08T03:55:26;101307.13;;;13.26;60.23
65553;BME280;52465;51.560;14.368;2023-05-08T03:58:04;101318.69;;;13.33;60.59
65553;BME280;52465;51.560;14.368;2023-05-08T04:06:01;101324.78;;;13.33;60.10
65553;BME280;52465;51.560;14.368;2023-05-08T04:08:41;101324.25;;;13.30;60.09
65553;BME280;52465;51.560;14.368;2023-05-08T04:11:43;101314.56;;;13.30;60.34
65553;BME280;52465;51.560;14.368;2023-05-08T04:14:15;101327.56;;;13.32;60.20
65553;BME280;52465;51.560;14.368;2023-05-08T04:16:51;101323.41;;;13.29;60.27
65553;BME280;52465;51.560;14.368;2023-05-08T04:19:28;101316.94;;;13.23;60.19
65553;BME280;52465;51.560;14.368;2023-05-08T04:21:58;101331.31;;;13.29;60.20
65553;BME280;52465;51.560;14.368;2023-05-08T04:24:27;101326.19;;;13.28;60.37
65553;BME280;52465;51.560;14.368;2023-05-08T04:26:57;101328.00;;;13.27;60.55
65553;BME280;52465;51.560;14.368;2023-05-08T04:29:24;101300.00;;;13.08;60.49
65553;BME280;52465;51.560;14.368;2023-05-08T04:31:50;101309.63;;;13.17;60.06
65553;BME280;52465;51.560;14.368;2023-05-08T04:34:16;101333.44;;;13.26;60.30
65553;BME280;52465;51.560;14.368;2023-05-08T04:36:42;101313.00;;;13.10;60.58
65553;BME280;52465;51.560;14.368;2023-05-08T04:39:08;101308.16;;;13.05;60.29
65553;BME280;52465;51.560;14.368;2023-05-08T04:41:33;101338.81;;;13.24;60.33
65553;BME280;52465;51.560;14.368;2023-05-08T04:44:00;101352.66;;;13.26;60.69
65553;BME280;52465;51.560;14.368;2023-05-08T04:46:26;101329.59;;;13.10;60.62
65553;BME280;52465;51.560;14.368;2023-05-08T04:48:51;101344.91;;;13.25;60.52
65553;BME280;52465;51.560;14.368;2023-05-08T04:51:17;101333.06;;;13.11;60.28
65553;BME280;52465;51.560;14.368;2023-05-08T04:54:19;101364.44;;;13.22;60.59
65553;BME280;52465;51.560;14.368;2023-05-08T04:56:45;101362.78;;;13.21;60.34
65553;BME280;52465;51.560;14.368;2023-05-08T04:59:13;101335.13;;;13.07;60.61
65553;BME280;52465;51.560;14.368;2023-05-08T05:01:41;101361.94;;;13.20;60.39
65553;BME280;52465;51.560;14.368;2023-05-08T05:04:06;101342.59;;;13.12;60.23
65553;BME280;52465;51.560;14.368;2023-05-08T05:06:32;101363.59;;;13.21;60.21
65553;BME280;52465;51.560;14.368;2023-05-08T05:08:58;101348.97;;;13.09;60.46
65553;BME280;52465;51.560;14.368;2023-05-08T05:11:24;101360.41;;;13.18;60.21
65553;BME280;52465;51.560;14.368;2023-05-08T05:13:50;101334.38;;;12.97;60.26
65553;BME280;52465;51.560;14.368;2023-05-08T05:16:15;101362.78;;;13.21;60.69
65553;BME280;52465;51.560;14.368;2023-05-08T05:18:41;101357.09;;;13.16;60.36
65553;BME280;52465;51.560;14.368;2023-05-08T05:21:06;101364.16;;;13.15;60.65
65553;BME280;52465;51.560;14.368;2023-05-08T05:23:32;101338.06;;;13.04;60.50
65553;BME280;52465;51.560;14.368;2023-05-08T05:25:57;101373.56;;;13.18;60.33
65553;BME280;52465;51.560;14.368;2023-05-08T05:28:22;101358.09;;;13.15;60.25
65553;BME280;52465;51.560;14.368;2023-05-08T05:30:48;101325.78;;;12.95;60.34
65553;BME280;52465;51.560;14.368;2023-05-08T05:33:13;101329.16;;;12.87;60.13
65553;BME280;52465;51.560;14.368;2023-05-08T05:35:39;101365.66;;;13.18;60.75
65553;BME280;52465;51.560;14.368;2023-05-08T05:38:05;101364.84;;;13.17;60.51
65553;BME280;52465;51.560;14.368;2023-05-08T05:40:30;101361.69;;;13.14;60.25
65553;BME280;52465;51.560;14.368;2023-05-08T05:42:56;101368.19;;;13.10;60.47
65553;BME280;52465;51.560;14.368;2023-05-08T05:45:21;101360.31;;;13.10;60.61
65553;BME280;52465;51.560;14.368;2023-05-08T05:47:47;101361.41;;;13.07;60.29
65553;BME280;52465;51.560;14.368;2023-05-08T05:50:19;101343.75;;;13.00;60.80
65553;BME280;52465;51.560;14.368;2023-05-08T05:52:45;101369.03;;;13.10;60.42
65553;BME280;52465;51.560;14.368;2023-05-08T05:55:11;101379.28;;;13.13;60.60
65553;BME280;52465;51.560;14.368;2023-05-08T05:57:55;101388.94;;;13.13;60.19
65553;BME280;52465;51.560;14.368;2023-05-08T06:00:21;101377.66;;;13.03;59.99
65553;BME280;52465;51.560;14.368;2023-05-08T06:02:47;101388.25;;;13.11;60.62
65553;BME280;52465;51.560;14.368;2023-05-08T06:05:13;101372.00;;;12.97;60.25
65553;BME280;52465;51.560;14.368;2023-05-08T06:07:38;101386.44;;;13.11;60.48
65553;BME280;52465;51.560;14.368;2023-05-08T06:10:04;101382.75;;;13.04;60.47
65553;BME280;52465;51.560;14.368;2023-05-08T06:12:30;101395.03;;;13.13;60.49
65553;BME280;52465;51.560;14.368;2023-05-08T06:14:55;101402.22;;;13.11;60.16
65553;BME280;52465;51.560;14.368;2023-05-08T06:17:21;101377.66;;;13.03;60.31
65553;BME280;52465;51.560;14.368;2023-05-08T06:19:48;101392.53;;;13.12;60.28
65553;BME280;52465;51.560;14.368;2023-05-08T06:22:18;101377.78;;;13.01;60.26
65553;BME280;52465;51.560;14.368;2023-05-08T06:24:48;101378.91;;;12.98;60.28
65553;BME280;52465;51.560;14.368;2023-05-08T06:27:13;101392.44;;;13.04;60.24
65553;BME280;52465;51.560;14.368;2023-05-08T06:29:39;101382.22;;;13.01;60.50
65553;BME280;52465;51.560;14.368;2023-05-08T06:32:05;101400.59;;;13.10;60.31
65553;BME280;52465;51.560;14.368;2023-05-08T06:34:30;101378.91;;;12.98;60.28
65553;BME280;52465;51.560;14.368;2023-05-08T06:36:58;101389.81;;;13.04;60.13
65553;BME280;52465;51.560;14.368;2023-05-08T06:39:24;101392.16;;;13.07;60.37
65553;BME280;52465;51.560;14.368;2023-05-08T06:41:49;101387.88;;;13.06;60.28
65553;BME280;52465;51.560;14.368;2023-05-08T06:44:15;101400.72;;;13.09;60.16
65553;BME280;52465;51.560;14.368;2023-05-08T06:46:41;101359.31;;;12.83;60.15
65553;BME280;52465;51.560;14.368;2023-05-08T06:49:08;101389.28;;;13.00;59.77
65553;BME280;52465;51.560;14.368;2023-05-08T06:51:33;101405.00;;;13.10;60.33
65553;BME280;52465;51.560;14.368;2023-05-08T06:54:05;101399.19;;;13.06;59.66
65553;BME280;52465;51.560;14.368;2023-05-08T06:56:32;101377.38;;;12.96;59.90
65553;BME280;52465;51.560;14.368;2023-05-08T06:58:58;101397.28;;;13.08;60.11
65553;BME280;52465;51.560;14.368;2023-05-08T07:01:24;101397.94;;;13.10;59.90
65553;BME280;52465;51.560;14.368;2023-05-08T07:03:49;101390.50;;;13.06;59.87
65553;BME280;52465;51.560;14.368;2023-05-08T07:06:17;101387.19;;;13.04;59.74
65553;BME280;52465;51.560;14.368;2023-05-08T07:08:43;101405.84;;;13.10;59.96
65553;BME280;52465;51.560;14.368;2023-05-08T07:11:08;101392.97;;;13.07;60.11
65553;BME280;52465;51.560;14.368;2023-05-08T07:13:37;101400.03;;;13.07;59.72
65553;BME280;52465;51.560;14.368;2023-05-08T07:16:08;101402.38;;;13.10;59.91
65553;BME280;52465;51.560;14.368;2023-05-08T07:18:33;101400.44;;;13.12;59.55
65553;BME280;52465;51.560;14.368;2023-05-08T07:20:58;101396.00;;;13.12;59.65
65553;BME280;52465;51.560;14.368;2023-05-08T07:23:24;101383.84;;;13.02;59.90
65553;BME280;52465;51.560;14.368;2023-05-08T07:27:12;101406.38;;;13.14;59.74
65553;BME280;52465;51.560;14.368;2023-05-08T07:29:38;101372.59;;;12.91;60.03
65553;BME280;52465;51.560;14.368;2023-05-08T07:32:08;101399.09;;;13.08;59.70
65553;BME280;52465;51.560;14.368;2023-05-08T07:34:36;101407.22;;;13.14;59.30
65553;BME280;52465;51.560;14.368;2023-05-08T07:37:02;101381.63;;;13.07;59.30
65553;BME280;52465;51.560;14.368;2023-05-08T07:39:28;101371.28;;;12.95;59.33
65553;BME280;52465;51.560;14.368;2023-05-08T07:41:53;101356.25;;;12.88;59.51
65553;BME280;52465;51.560;14.368;2023-05-08T07:44:18;101404.28;;;13.17;59.65
65553;BME280;52465;51.560;14.368;2023-05-08T07:46:44;101383.31;;;13.08;59.25
65553;BME280;52465;51.560;14.368;2023-05-08T07:49:09;101412.03;;;13.19;59.17
65553;BME280;52465;51.560;14.368;2023-05-08T07:51:35;101404.72;;;13.13;59.50
65553;BME280;52465;51.560;14.368;2023-05-08T07:54:00;101410.25;;;13.19;59.28
65553;BME280;52465;51.560;14.368;2023-05-08T07:56:26;101409.00;;;13.14;58.92
65553;BME280;52465;51.560;14.368;2023-05-08T07:58:52;101409.13;;;13.22;59.08
65553;BME280;52465;51.560;14.368;2023-05-08T08:01:18;101414.41;;;13.22;58.96
65553;BME280;52465;51.560;14.368;2023-05-08T08:03:44;101423.94;;;13.23;59.34
65553;BME280;52465;51.560;14.368;2023-05-08T08:06:09;101402.47;;;13.18;59.15
65553;BME280;52465;51.560;14.368;2023-05-08T08:08:35;101385.63;;;13.11;59.40
65553;BME280;52465;51.560;14.368;2023-05-08T08:11:01;101409.81;;;13.24;59.53
65553;BME280;52465;51.560;14.368;2023-05-08T08:13:26;101403.88;;;13.12;59.28
65553;BME280;52465;51.560;14.368;2023-05-08T08:15:52;101390.63;;;13.14;59.32
65553;BME280;52465;51.560;14.368;2023-05-08T08:18:17;101415.63;;;13.28;59.10
65553;BME280;52465;51.560;14.368;2023-05-08T08:20:43;101387.94;;;13.23;59.07
65553;BME280;52465;51.560;14.368;2023-05-08T08:23:08;101388.34;;;13.29;59.05
65553;BME280;52465;51.560;14.368;2023-05-08T08:25:34;101383.25;;;13.17;58.98
65553;BME280;52465;51.560;14.368;2023-05-08T08:27:59;101391.28;;;13.16;59.09
65553;BME280;52465;51.560;14.368;2023-05-08T08:30:25;101392.50;;;13.31;58.70
65553;BME280;52465;51.560;14.368;2023-05-08T08:32:51;101390.28;;;13.27;59.09
65553;BME280;52465;51.560;14.368;2023-05-08T08:35:19;101394.97;;;13.33;58.70
65553;BME280;52465;51.560;14.368;2023-05-08T08:37:45;101392.50;;;13.31;58.49
65553;BME280;52465;51.560;14.368;2023-05-08T08:40:11;101372.72;;;13.17;58.99
65553;BME280;52465;51.560;14.368;2023-05-08T08:42:37;101387.06;;;13.33;58.44
65553;BME280;52465;51.560;14.368;2023-05-08T08:45:02;101349.97;;;13.08;58.82
65553;BME280;52465;51.560;14.368;2023-05-08T08:47:32;101409.34;;;13.38;58.40
65553;BME280;52465;51.560;14.368;2023-05-08T08:50:02;101409.34;;;13.38;58.40
65553;BME280;52465;51.560;14.368;2023-05-08T08:52:30;101391.19;;;13.35;58.50
65553;BME280;52465;51.560;14.368;2023-05-08T08:55:27;101359.28;;;13.20;58.78
65553;BME280;52465;51.560;14.368;2023-05-08T08:58:06;101387.47;;;13.38;58.70
65553;BME280;52465;51.560;14.368;2023-05-08T09:00:35;101370.25;;;13.26;58.29
65553;BME280;52465;51.560;14.368;2023-05-08T09:03:02;101271.41;;;12.68;58.34
65553;BME280;52465;51.560;14.368;2023-05-08T09:05:30;101366.88;;;13.33;58.20
65553;BME280;52465;51.560;14.368;2023-05-08T09:07:56;101383.69;;;13.40;58.05
65553;BME280;52465;51.560;14.368;2023-05-08T09:10:23;101388.25;;;13.48;58.30
65553;BME280;52465;51.560;14.368;2023-05-08T09:12:49;101394.03;;;13.52;58.04
65553;BME280;52465;51.560;14.368;2023-05-08T09:15:14;101361.22;;;13.28;58.40
65553;BME280;52465;51.560;14.368;2023-05-08T09:17:40;101396.53;;;13.53;58.09
65553;BME280;52465;51.560;14.368;2023-05-08T09:20:06;101387.81;;;13.53;58.22
65553;BME280;52465;51.560;14.368;2023-05-08T09:22:35;101399.44;;;13.50;58.10
65553;BME280;52465;51.560;14.368;2023-05-08T09:25:00;101407.72;;;13.55;58.35
65553;BME280;52465;51.560;14.368;2023-05-08T09:27:29;101374.56;;;13.44;58.22
65553;BME280;52465;51.560;14.368;2023-05-08T09:30:05;101397.75;;;13.59;58.05
65553;BME280;52465;51.560;14.368;2023-05-08T09:32:35;101389.16;;;13.57;58.05
65553;BME280;52465;51.560;14.368;2023-05-08T09:35:01;101360.03;;;13.40;57.74
65553;BME280;52465;51.560;14.368;2023-05-08T09:37:27;101384.97;;;13.64;57.57
65553;BME280;52465;51.560;14.368;2023-05-08T09:39:53;101387.13;;;13.68;57.95
65553;BME280;52465;51.560;14.368;2023-05-08T09:42:19;101376.91;;;13.65;57.90
65553;BME280;52465;51.560;14.368;2023-05-08T09:44:48;101378.41;;;13.68;57.80
65553;BME280;52465;51.560;14.368;2023-05-08T09:47:16;101363.38;;;13.60;57.76
65553;BME280;52465;51.560;14.368;2023-05-08T09:52:27;101365.25;;;13.68;58.02
65553;BME280;52465;51.560;14.368;2023-05-08T09:54:57;101363.00;;;13.73;57.88
65553;BME280;52465;51.560;14.368;2023-05-08T09:57:24;101357.81;;;13.63;57.94
65553;BME280;52465;51.560;14.368;2023-05-08T09:59:50;101360.00;;;13.68;57.79
65553;BME280;52465;51.560;14.368;2023-05-08T10:02:15;101378.19;;;13.79;57.66
65553;BME280;52465;51.560;14.368;2023-05-08T10:04:41;101382.47;;;13.80;57.70
65553;BME280;52465;51.560;14.368;2023-05-08T10:07:07;101362.09;;;13.82;57.64
65553;BME280;52465;51.560;14.368;2023-05-08T10:09:32;101367.38;;;13.82;57.40
65553;BME280;52465;51.560;14.368;2023-05-08T10:11:57;101363.38;;;13.78;57.36
65553;BME280;52465;51.560;14.368;2023-05-08T10:14:23;101374.94;;;13.85;57.42
65553;BME280;52465;51.560;14.368;2023-05-08T10:16:51;101355.47;;;13.78;58.09
65553;BME280;52465;51.560;14.368;2023-05-08T10:19:20;101366.22;;;13.85;57.55
65553;BME280;52465;51.560;14.368;2023-05-08T10:21:48;101332.84;;;13.67;57.75
65553;BME280;52465;51.560;14.368;2023-05-08T10:24:16;101352.78;;;13.88;57.30
65553;BME280;52465;51.560;14.368;2023-05-08T10:26:51;101355.78;;;13.93;57.43
65553;BME280;52465;51.560;14.368;2023-05-08T10:29:46;101360.38;;;13.91;57.36
65553;BME280;52465;51.560;14.368;2023-05-08T10:32:44;101321.66;;;13.83;57.51
65553;BME280;52465;51.560;14.368;2023-05-08T10:35:11;101343.97;;;13.97;57.58
65553;BME280;52465;51.560;14.368;2023-05-08T10:37:38;101328.56;;;13.84;57.10
65553;BME280;52465;51.560;14.368;2023-05-08T10:40:05;101350.75;;;13.99;57.02
65553;BME280;52465;51.560;14.368;2023-05-08T10:42:32;101350.41;;;14.02;57.23
65553;BME280;52465;51.560;14.368;2023-05-08T10:44:59;101329.97;;;13.96;56.99
65553;BME280;52465;51.560;14.368;2023-05-08T10:47:57;101332.00;;;14.02;57.05
65553;BME280;52465;51.560;14.368;2023-05-08T10:53:06;101329.53;;;14.01;57.57
65553;BME280;52465;51.560;14.368;2023-05-08T10:55:35;101333.34;;;14.07;57.12
65553;BME280;52465;51.560;14.368;2023-05-08T10:58:08;101312.22;;;13.98;56.99
65553;BME280;52465;51.560;14.368;2023-05-08T11:03:21;101328.63;;;14.10;56.99
65553;BME280;52465;51.560;14.368;2023-05-08T11:05:49;101274.47;;;13.90;57.19
65553;BME280;52465;51.560;14.368;2023-05-08T11:08:20;101321.91;;;14.16;57.12
65553;BME280;52465;51.560;14.368;2023-05-08T11:16:07;101318.66;;;14.22;56.85
65553;BME280;52465;51.560;14.368;2023-05-08T11:18:35;101307.09;;;14.15;57.16
65553;BME280;52465;51.560;14.368;2023-05-08T11:21:02;101307.28;;;14.21;57.08
65553;BME280;52465;51.560;14.368;2023-05-08T11:23:30;101297.88;;;14.19;57.04
65553;BME280;52465;51.560;14.368;2023-05-08T11:26:06;101308.31;;;14.28;56.87
65553;BME280;52465;51.560;14.368;2023-05-08T11:28:37;101319.69;;;14.29;56.80
65553;BME280;52465;51.560;14.368;2023-05-08T11:31:05;101291.94;;;14.17;57.00
65553;BME280;52465;51.560;14.368;2023-05-08T11:33:34;101299.88;;;14.25;56.71
65553;BME280;52465;51.560;14.368;2023-05-08T11:36:12;101319.06;;;14.35;56.71
65553;BME280;52465;51.560;14.368;2023-05-08T11:38:37;101269.53;;;14.13;56.80
65553;BME280;52465;51.560;14.368;2023-05-08T11:41:07;101288.41;;;14.26;56.83
65553;BME280;52465;51.560;14.368;2023-05-08T11:46:06;101310.22;;;14.44;56.56
65553;BME280;52465;51.560;14.368;2023-05-08T11:48:57;101296.91;;;14.46;56.69
65553;BME280;52465;51.560;14.368;2023-05-08T11:51:24;101310.78;;;14.48;56.47
65553;BME280;52465;51.560;14.368;2023-05-08T11:53:55;101306.34;;;14.48;56.67
65553;BME280;52465;51.560;14.368;2023-05-08T11:56:21;101284.97;;;14.34;56.59
65553;BME280;52465;51.560;14.368;2023-05-08T11:58:47;101297.22;;;14.43;56.56
65553;BME280;52465;51.560;14.368;2023-05-08T12:01:18;101299.41;;;14.47;56.55
65553;BME280;52465;51.560;14.368;2023-05-08T12:03:44;101285.69;;;14.44;56.51
65553;BME280;52465;51.560;14.368;2023-05-08T12:06:09;101280.25;;;14.45;56.36
65553;BME280;52465;51.560;14.368;2023-05-08T12:08:37;101273.66;;;14.41;56.37
65553;BME280;52465;51.560;14.368;2023-05-08T12:11:03;101293.16;;;14.48;56.56
65553;BME280;52465;51.560;14.368;2023-05-08T12:13:29;101285.75;;;14.52;56.36
65553;BME280;52465;51.560;14.368;2023-05-08T12:15:56;101260.81;;;14.38;56.54
65553;BME280;52465;51.560;14.368;2023-05-08T12:18:23;101289.56;;;14.58;56.24
65553;BME280;52465;51.560;14.368;2023-05-08T12:20:53;101281.47;;;14.51;56.21
65553;BME280;52465;51.560;14.368;2023-05-08T12:23:19;101268.63;;;14.48;56.37
65553;BME280;52465;51.560;14.368;2023-05-08T12:25:45;101287.47;;;14.61;56.11
65553;BME280;52465;51.560;14.368;2023-05-08T12:28:10;101290.75;;;14.63;56.16
65553;BME280;52465;51.560;14.368;2023-05-08T12:30:36;101288.28;;;14.62;56.10
65553;BME280;52465;51.560;14.368;2023-05-08T12:33:03;101285.19;;;14.66;56.39
65553;BME280;52465;51.560;14.368;2023-05-08T12:35:29;101248.97;;;14.42;55.99
65553;BME280;52465;51.560;14.368;2023-05-08T12:38:02;101285.66;;;14.62;56.11
65553;BME280;52465;51.560;14.368;2023-05-08T12:40:33;101288.19;;;14.71;56.22
65553;BME280;52465;51.560;14.368;2023-05-08T12:43:00;101273.13;;;14.64;56.31
65553;BME280;52465;51.560;14.368;2023-05-08T12:45:28;101265.19;;;14.55;56.15
65553;BME280;52465;51.560;14.368;2023-05-08T12:48:06;101285.53;;;14.71;56.06
65553;BME280;52465;51.560;14.368;2023-05-08T12:50:43;101280.63;;;14.76;56.08
65553;BME280;52465;51.560;14.368;2023-05-08T12:53:12;101269.72;;;14.71;55.88
65553;BME280;52465;51.560;14.368;2023-05-08T12:55:45;101282.09;;;14.79;55.91
65553;BME280;52465;51.560;14.368;2023-05-08T12:58:37;101238.03;;;14.63;56.02
65553;BME280;52465;51.560;14.368;2023-05-08T13:01:04;101256.38;;;14.73;56.02
65553;BME280;52465;51.560;14.368;2023-05-08T13:03:29;101242.84;;;14.68;55.81
65553;BME280;52465;51.560;14.368;2023-05-08T13:05:56;101268.44;;;14.84;55.87
65553;BME280;52465;51.560;14.368;2023-05-08T13:08:33;101262.34;;;14.83;55.77
65553;BME280;52465;51.560;14.368;2023-05-08T13:11:00;101260.53;;;14.84;55.64
65553;BME280;52465;51.560;14.368;2023-05-08T13:13:28;101270.75;;;14.87;55.73
65553;BME280;52465;51.560;14.368;2023-05-08T13:15:54;101236.75;;;14.67;55.75
65553;BME280;52465;51.560;14.368;2023-05-08T13:18:23;101266.97;;;14.89;55.67
65553;BME280;52465;51.560;14.368;2023-05-08T13:20:49;101254.59;;;14.81;55.79
65553;BME280;52465;51.560;14.368;2023-05-08T13:23:15;101258.06;;;14.90;55.61
65553;BME280;52465;51.560;14.368;2023-05-08T13:25:41;101247.88;;;14.87;55.58